createdAt,value
2022-12-22T00:02:20.158Z,7.23
2022-12-22T00:05:07.387Z,8.83
2022-12-22T00:07:53.343Z,8.43
2022-12-22T00:10:38.485Z,8.00
2022-12-22T00:13:23.739Z,7.67
2022-12-22T00:16:09.098Z,7.73
2022-12-22T00:18:54.257Z,8.43
2022-12-22T00:21:39.281Z,8.00
2022-12-22T00:24:24.434Z,7.67
2022-12-22T00:27:09.885Z,7.40
2022-12-22T00:30:00.260Z,7.97
2022-12-22T00:32:56.512Z,7.23
2022-12-22T00:35:44.102Z,7.30
2022-12-22T00:38:36.249Z,8.20
2022-12-22T00:41:21.744Z,9.30
2022-12-22T00:44:06.734Z,7.57
2022-12-22T00:46:54.071Z,8.63
2022-12-22T00:49:40.766Z,8.40
2022-12-22T00:52:25.928Z,7.83
2022-12-22T00:55:12.337Z,9.13
2022-12-22T00:58:00.100Z,8.57
2022-12-22T01:00:45.659Z,9.20
2022-12-22T01:03:31.287Z,8.93
2022-12-22T01:06:19.335Z,8.80
2022-12-22T01:09:05.452Z,8.97
2022-12-22T01:11:52.502Z,9.60
2022-12-22T01:14:37.909Z,9.17
2022-12-22T01:17:22.728Z,9.20
2022-12-22T01:20:07.538Z,9.23
2022-12-22T01:22:52.997Z,10.17
2022-12-22T01:25:38.476Z,10.07
2022-12-22T01:28:24.681Z,9.20
2022-12-22T01:31:09.490Z,9.97
2022-12-22T01:33:54.571Z,9.27
2022-12-22T01:36:39.597Z,9.73
2022-12-22T01:39:24.707Z,9.53
2022-12-22T01:42:09.802Z,9.10
2022-12-22T01:44:54.578Z,9.97
2022-12-22T01:47:45.986Z,9.70
2022-12-22T01:50:47.535Z,8.87
2022-12-22T01:53:39.993Z,9.03
2022-12-22T01:56:25.641Z,9.57
2022-12-22T01:59:13.535Z,8.67
2022-12-22T02:02:00.327Z,9.23
2022-12-22T02:04:51.107Z,9.37
2022-12-22T02:07:53.043Z,8.43
2022-12-22T02:10:43.800Z,9.50
2022-12-22T02:13:56.198Z,8.77
2022-12-22T02:16:50.245Z,9.03
2022-12-22T02:20:01.625Z,9.87
2022-12-22T02:23:09.537Z,9.00
2022-12-22T02:26:31.699Z,8.83
2022-12-22T02:29:16.758Z,8.13
2022-12-22T02:32:01.618Z,9.90
2022-12-22T02:34:46.471Z,8.50
2022-12-22T02:38:01.381Z,8.77
2022-12-22T02:40:58.060Z,8.07
2022-12-22T02:44:23.558Z,9.00
2022-12-22T02:47:20.799Z,8.93
2022-12-22T02:50:16.646Z,9.20
2022-12-22T02:53:04.126Z,8.60
2022-12-22T02:55:50.071Z,9.60
2022-12-22T02:58:35.707Z,9.47
2022-12-22T03:01:23.116Z,8.23
2022-12-22T03:04:08.491Z,9.00
2022-12-22T03:06:53.374Z,8.33
2022-12-22T03:09:38.581Z,9.60
2022-12-22T03:12:23.579Z,8.80
2022-12-22T03:15:08.500Z,8.07
2022-12-22T03:17:53.197Z,8.47
2022-12-22T03:20:38.289Z,8.43
2022-12-22T03:23:25.100Z,9.13
2022-12-22T03:25:54.367Z,8.63
2022-12-22T03:28:23.034Z,9.67
2022-12-22T03:31:04.079Z,9.20
2022-12-22T03:33:31.550Z,9.57
2022-12-22T03:35:58.952Z,9.10
2022-12-22T03:38:25.942Z,7.93
2022-12-22T03:40:52.600Z,8.00
2022-12-22T03:43:37.736Z,9.27
2022-12-22T03:46:23.685Z,8.57
2022-12-22T03:49:08.882Z,9.73
2022-12-22T03:51:56.701Z,8.83
2022-12-22T03:54:25.499Z,9.23
2022-12-22T03:56:53.046Z,9.67
2022-12-22T03:59:20.397Z,8.73
2022-12-22T04:01:50.121Z,9.80
2022-12-22T04:04:19.276Z,8.67
2022-12-22T04:06:46.761Z,8.73
2022-12-22T04:09:13.721Z,8.37
2022-12-22T04:11:58.765Z,8.23
2022-12-22T04:14:31.500Z,8.17
2022-12-22T04:17:00.296Z,9.17
2022-12-22T04:19:26.760Z,8.23
2022-12-22T04:21:54.650Z,8.20
2022-12-22T04:24:22.249Z,8.87
2022-12-22T04:26:49.247Z,8.40
2022-12-22T04:29:15.851Z,9.47
2022-12-22T04:31:42.482Z,9.00
2022-12-22T04:34:09.027Z,9.60
2022-12-22T04:36:35.499Z,9.93
2022-12-22T04:39:02.022Z,8.50
2022-12-22T04:41:28.431Z,10.07
2022-12-22T04:43:54.872Z,7.33
2022-12-22T04:46:21.467Z,9.40
2022-12-22T04:48:47.978Z,8.50
2022-12-22T04:51:14.516Z,8.63
2022-12-22T04:53:40.924Z,9.53
2022-12-22T04:56:08.210Z,7.17
2022-12-22T04:58:35.219Z,8.23
2022-12-22T05:01:13.305Z,6.90
2022-12-22T05:03:39.855Z,7.67
2022-12-22T05:06:06.926Z,9.60
2022-12-22T05:08:33.549Z,8.63
2022-12-22T05:11:00.201Z,8.60
2022-12-22T05:13:26.664Z,9.33
2022-12-22T05:15:53.095Z,7.83
2022-12-22T05:18:19.610Z,9.23
2022-12-22T05:20:46.037Z,9.57
2022-12-22T05:23:12.641Z,8.50
2022-12-22T05:25:39.041Z,8.00
2022-12-22T05:28:05.534Z,9.97
2022-12-22T05:30:32.035Z,7.90
2022-12-22T05:32:58.618Z,8.00
2022-12-22T05:35:25.118Z,9.40
2022-12-22T05:37:51.613Z,8.73
2022-12-22T05:40:18.305Z,8.23
2022-12-22T05:42:44.769Z,8.30
2022-12-22T05:45:19.814Z,8.70
2022-12-22T05:47:51.992Z,8.40
2022-12-22T05:50:23.819Z,8.67
2022-12-22T05:52:50.533Z,9.70
2022-12-22T05:55:17.310Z,9.47
2022-12-22T05:57:43.971Z,9.03
2022-12-22T06:00:15.971Z,9.17
2022-12-22T06:02:43.733Z,9.00
2022-12-22T06:05:12.594Z,9.20
2022-12-22T06:07:39.584Z,9.30
2022-12-22T06:10:12.301Z,8.97
2022-12-22T06:12:40.700Z,9.27
2022-12-22T06:15:08.210Z,8.37
2022-12-22T06:17:37.935Z,8.07
2022-12-22T06:20:11.266Z,8.20
2022-12-22T06:22:37.693Z,8.30
2022-12-22T06:25:04.657Z,8.47
2022-12-22T06:27:31.104Z,8.63
2022-12-22T06:29:57.550Z,9.17
2022-12-22T06:32:24.051Z,9.23
2022-12-22T06:34:50.720Z,8.23
2022-12-22T06:37:17.285Z,8.43
2022-12-22T06:39:43.712Z,7.80
2022-12-22T06:42:29.573Z,7.23
2022-12-22T06:44:56.122Z,7.53
2022-12-22T06:47:22.954Z,7.93
2022-12-22T06:49:49.733Z,8.40
2022-12-22T06:52:16.293Z,7.73
2022-12-22T06:54:42.739Z,8.00
2022-12-22T06:57:09.309Z,8.07
2022-12-22T06:59:35.682Z,9.33
2022-12-22T07:02:02.195Z,10.53
2022-12-22T07:04:29.735Z,12.67
2022-12-22T07:06:56.378Z,9.03
2022-12-22T07:09:22.831Z,8.07
2022-12-22T07:11:49.232Z,8.87
2022-12-22T07:14:15.768Z,8.60
2022-12-22T07:16:42.299Z,9.47
2022-12-22T07:19:08.855Z,9.17
2022-12-22T07:21:38.016Z,9.03
2022-12-22T07:24:04.871Z,10.33
2022-12-22T07:26:31.506Z,10.30
2022-12-22T07:28:58.001Z,10.73
2022-12-22T07:31:24.681Z,10.63
2022-12-22T07:33:51.804Z,10.97
2022-12-22T07:36:20.246Z,10.23
2022-12-22T07:38:49.189Z,11.40
2022-12-22T07:41:56.077Z,11.07
2022-12-22T07:44:22.683Z,11.33
2022-12-22T07:46:49.174Z,11.10
2022-12-22T07:49:34.688Z,10.73
2022-12-22T07:52:01.116Z,12.30
2022-12-22T07:54:28.661Z,11.83
2022-12-22T07:56:55.528Z,11.80
2022-12-22T07:59:22.624Z,12.10
2022-12-22T08:01:49.284Z,13.87
2022-12-22T08:04:16.913Z,11.07
2022-12-22T08:06:43.502Z,10.03
2022-12-22T08:09:15.257Z,11.87
2022-12-22T08:11:41.692Z,11.40
2022-12-22T08:14:08.479Z,11.20
2022-12-22T08:16:35.113Z,11.50
2022-12-22T08:19:01.712Z,10.70
2022-12-22T08:21:28.212Z,11.93
2022-12-22T08:23:54.768Z,12.03
2022-12-22T08:26:43.950Z,11.23
2022-12-22T08:29:25.528Z,10.23
2022-12-22T08:31:52.954Z,11.10
2022-12-22T08:34:19.580Z,11.37
2022-12-22T08:36:50.904Z,11.00
2022-12-22T08:39:20.636Z,10.33
2022-12-22T08:41:49.966Z,9.90
2022-12-22T08:44:19.335Z,10.97
2022-12-22T08:46:46.257Z,10.80
2022-12-22T08:49:12.873Z,11.67
2022-12-22T08:51:39.302Z,10.40
2022-12-22T08:54:06.740Z,9.97
2022-12-22T08:56:33.636Z,10.10
2022-12-22T08:59:04.964Z,10.03
2022-12-22T09:01:33.307Z,9.17
2022-12-22T09:04:00.514Z,8.17
2022-12-22T09:06:29.722Z,9.43
2022-12-22T09:09:01.319Z,7.80
2022-12-22T09:11:29.428Z,9.33
2022-12-22T09:13:58.716Z,8.03
2022-12-22T09:16:28.561Z,8.73
2022-12-22T09:18:55.937Z,7.33
2022-12-22T09:21:23.870Z,6.90
2022-12-22T09:23:50.396Z,7.27
2022-12-22T09:26:19.888Z,6.40
2022-12-22T09:28:50.539Z,6.03
2022-12-22T09:31:20.649Z,6.17
2022-12-22T09:33:47.618Z,6.40
2022-12-22T09:36:18.025Z,6.90
2022-12-22T09:38:44.720Z,6.57
2022-12-22T09:41:22.304Z,7.27
2022-12-22T09:43:48.933Z,7.07
2022-12-22T09:46:22.765Z,9.33
2022-12-22T09:48:49.913Z,9.63
2022-12-22T09:51:22.763Z,7.60
2022-12-22T09:53:57.854Z,8.27
2022-12-22T09:56:26.276Z,7.73
2022-12-22T09:58:52.854Z,7.17
2022-12-22T10:01:51.697Z,8.50
2022-12-22T10:04:52.404Z,7.23
2022-12-22T10:07:40.056Z,7.10
2022-12-22T10:10:12.497Z,7.97
2022-12-22T10:12:39.018Z,7.17
2022-12-22T10:15:12.376Z,6.73
2022-12-22T10:17:40.696Z,7.13
2022-12-22T10:20:07.151Z,5.87
2022-12-22T10:22:45.761Z,6.77
2022-12-22T10:26:17.010Z,6.47
2022-12-22T10:28:35.747Z,6.80
2022-12-22T10:31:22.010Z,6.93
2022-12-22T10:33:53.905Z,6.23
2022-12-22T10:36:32.276Z,7.60
2022-12-22T10:39:00.934Z,7.00
2022-12-22T10:41:41.179Z,7.77
2022-12-22T10:44:19.387Z,8.53
2022-12-22T10:46:54.215Z,9.10
2022-12-22T10:49:20.718Z,9.37
2022-12-22T10:51:51.083Z,10.33
2022-12-22T10:54:36.017Z,9.43
2022-12-22T10:57:16.611Z,9.77
2022-12-22T10:59:51.787Z,8.83
2022-12-22T11:02:21.180Z,11.40
2022-12-22T11:04:48.979Z,11.50
2022-12-22T11:07:15.711Z,11.33
2022-12-22T11:09:42.429Z,9.80
2022-12-22T11:12:30.577Z,11.47
2022-12-22T11:15:08.026Z,11.57
2022-12-22T11:17:44.578Z,12.17
2022-12-22T11:20:35.944Z,15.00
2022-12-22T11:23:21.500Z,14.80
2022-12-22T11:26:07.911Z,13.63
2022-12-22T11:28:53.013Z,14.00
2022-12-22T11:31:56.909Z,13.77
2022-12-22T11:34:51.014Z,12.20
2022-12-22T11:37:37.726Z,9.90
2022-12-22T11:40:14.890Z,11.20
2022-12-22T11:43:10.987Z,11.77
2022-12-22T11:45:59.466Z,10.60
2022-12-22T11:48:47.467Z,11.07
2022-12-22T11:51:14.728Z,10.87
2022-12-22T11:53:55.047Z,7.77
2022-12-22T11:56:25.434Z,7.77
2022-12-22T11:59:11.044Z,7.03
2022-12-22T12:02:05.467Z,7.30
2022-12-22T12:05:09.824Z,7.07
2022-12-22T12:07:43.488Z,6.23
2022-12-22T12:10:28.728Z,6.27
2022-12-22T12:13:26.459Z,6.47
2022-12-22T12:16:03.176Z,7.03
2022-12-22T12:18:42.020Z,6.63
2022-12-22T12:21:35.668Z,8.57
2022-12-22T12:24:52.622Z,7.50
2022-12-22T12:27:39.889Z,7.90
2022-12-22T12:37:48.981Z,6.87
2022-12-22T12:51:52.411Z,7.83
2022-12-22T12:54:35.896Z,7.77
2022-12-22T12:57:25.418Z,7.50
2022-12-22T12:59:54.728Z,8.33
2022-12-22T13:02:27.884Z,10.23
2022-12-22T13:05:16.800Z,9.50
2022-12-22T13:08:19.538Z,8.73
2022-12-22T13:10:46.380Z,6.70
2022-12-22T13:13:21.998Z,6.90
2022-12-22T13:16:29.118Z,7.33
2022-12-22T13:19:00.466Z,7.93
2022-12-22T13:21:53.621Z,8.23
2022-12-22T13:24:25.612Z,8.47
2022-12-22T13:26:56.025Z,8.07
2022-12-22T13:29:23.044Z,7.63
2022-12-22T13:31:55.460Z,9.20
2022-12-22T13:34:22.426Z,7.70
2022-12-22T13:36:51.400Z,8.90
2022-12-22T13:39:18.067Z,8.80
2022-12-22T13:41:48.504Z,9.27
2022-12-22T13:44:31.615Z,9.13
2022-12-22T13:47:14.863Z,8.90
2022-12-22T13:50:07.814Z,9.73
2022-12-22T13:52:30.426Z,9.33
2022-12-22T13:54:57.191Z,10.33
2022-12-22T13:57:24.958Z,9.57
2022-12-22T13:59:52.085Z,10.00
2022-12-22T14:02:21.166Z,9.77
2022-12-22T14:05:07.984Z,9.57
2022-12-22T14:07:34.754Z,10.33
2022-12-22T14:10:01.404Z,11.07
2022-12-22T14:12:31.330Z,10.50
2022-12-22T14:15:01.581Z,10.83
2022-12-22T14:17:32.736Z,10.37
2022-12-22T14:20:09.478Z,11.80
2022-12-22T14:23:06.507Z,11.53
2022-12-22T14:25:37.249Z,11.90
2022-12-22T14:28:07.247Z,11.57
2022-12-22T14:30:44.039Z,11.47
2022-12-22T14:33:28.826Z,14.53
2022-12-22T14:36:13.609Z,10.73
2022-12-22T14:38:43.451Z,12.57
2022-12-22T14:41:33.340Z,12.23
2022-12-22T14:44:03.712Z,11.23
2022-12-22T14:46:38.407Z,11.73
2022-12-22T14:49:06.181Z,11.20
2022-12-22T14:51:32.748Z,11.50
2022-12-22T14:54:03.131Z,12.67
2022-12-22T14:56:30.120Z,11.50
2022-12-22T14:59:21.695Z,12.30
2022-12-22T15:02:22.195Z,12.57
2022-12-22T15:05:08.700Z,11.77
2022-12-22T15:08:05.493Z,12.37
2022-12-22T15:10:40.338Z,12.13
2022-12-22T15:13:13.328Z,13.23
2022-12-22T15:15:41.233Z,13.60
2022-12-22T15:18:15.179Z,13.80
2022-12-22T15:20:42.148Z,13.60
2022-12-22T15:23:12.760Z,14.63
2022-12-22T15:25:39.718Z,13.70
2022-12-22T15:28:06.150Z,14.27
2022-12-22T15:30:32.601Z,15.17
2022-12-22T15:33:00.024Z,14.63
2022-12-22T15:35:32.197Z,15.00
2022-12-22T15:37:59.681Z,15.00
2022-12-22T15:40:27.419Z,13.57
2022-12-22T15:42:54.628Z,14.30
2022-12-22T15:45:22.605Z,14.57
2022-12-22T15:47:52.717Z,12.73
2022-12-22T15:50:38.500Z,14.43
2022-12-22T15:53:09.282Z,12.13
2022-12-22T15:55:42.994Z,11.53
2022-12-22T15:58:16.819Z,13.20
2022-12-22T16:00:46.812Z,11.53
2022-12-22T16:03:14.386Z,12.13
2022-12-22T16:05:41.816Z,11.47
2022-12-22T16:08:18.630Z,11.10
2022-12-22T16:10:46.862Z,10.73
2022-12-22T16:13:15.591Z,11.10
2022-12-22T16:15:42.409Z,11.03
2022-12-22T16:18:11.992Z,10.93
2022-12-22T16:20:42.713Z,11.07
2022-12-22T16:23:18.637Z,10.47
2022-12-22T16:25:46.913Z,9.10
2022-12-22T16:28:20.489Z,11.20
2022-12-22T16:30:47.862Z,10.83
2022-12-22T16:33:15.205Z,10.23
2022-12-22T16:35:42.112Z,9.77
2022-12-22T16:38:16.315Z,10.20
2022-12-22T16:40:49.178Z,10.43
2022-12-22T16:46:16.079Z,10.93
2022-12-22T16:49:09.214Z,10.80
2022-12-22T16:51:38.777Z,12.40
2022-12-22T16:54:05.236Z,11.17
2022-12-22T16:56:32.678Z,9.30
2022-12-22T16:59:00.758Z,8.93
2022-12-22T17:01:36.769Z,9.47
2022-12-22T17:04:17.363Z,9.10
2022-12-22T17:06:47.021Z,8.60
2022-12-22T17:09:19.230Z,9.50
2022-12-22T17:11:47.126Z,9.03
2022-12-22T17:14:19.405Z,8.37
2022-12-22T17:16:45.996Z,8.37
2022-12-22T17:19:12.460Z,8.43
2022-12-22T17:21:39.062Z,10.17
2022-12-22T17:24:05.832Z,9.87
2022-12-22T17:26:34.575Z,8.90
2022-12-22T17:29:01.588Z,9.60
2022-12-22T17:31:28.281Z,9.53
2022-12-22T17:33:54.837Z,9.37
2022-12-22T17:36:24.099Z,8.60
2022-12-22T17:38:50.670Z,7.93
2022-12-22T17:41:17.562Z,8.47
2022-12-22T17:43:44.246Z,7.70
2022-12-22T17:46:15.172Z,7.07
2022-12-22T17:48:43.927Z,7.90
2022-12-22T17:51:26.865Z,7.60
2022-12-22T17:53:54.574Z,7.17
2022-12-22T17:56:24.313Z,7.30
2022-12-22T17:58:54.559Z,7.77
2022-12-22T18:01:31.357Z,7.23
2022-12-22T18:03:58.709Z,7.73
2022-12-22T18:06:33.635Z,7.77
2022-12-22T18:09:00.499Z,7.30
2022-12-22T18:11:27.771Z,7.90
2022-12-22T18:13:57.350Z,7.63
2022-12-22T18:16:24.164Z,7.40
2022-12-22T18:18:51.506Z,8.13
2022-12-22T18:21:21.169Z,8.10
2022-12-22T18:23:50.662Z,8.83
2022-12-22T18:26:25.721Z,8.97
2022-12-22T18:28:53.382Z,8.23
2022-12-22T18:31:20.636Z,9.33
2022-12-22T18:33:47.213Z,8.17
2022-12-22T18:36:16.656Z,8.00
2022-12-22T18:38:43.388Z,8.47
2022-12-22T18:41:14.459Z,7.40
2022-12-22T18:43:40.951Z,7.57
2022-12-22T18:46:10.505Z,8.27
2022-12-22T18:48:37.037Z,9.27
2022-12-22T18:51:04.871Z,8.93
2022-12-22T18:53:32.189Z,7.83
2022-12-22T18:56:00.776Z,8.40
2022-12-22T18:58:27.306Z,9.17
2022-12-22T19:00:54.912Z,12.23
2022-12-22T19:03:28.970Z,9.53
2022-12-22T19:05:56.032Z,9.57
2022-12-22T19:08:27.614Z,8.17
2022-12-22T19:10:56.810Z,8.50
2022-12-22T19:13:28.291Z,8.00
2022-12-22T19:15:55.591Z,7.97
2022-12-22T19:18:27.024Z,7.50
2022-12-22T19:20:55.430Z,7.87
2022-12-22T19:23:23.603Z,7.57
2022-12-22T19:25:54.604Z,8.30
2022-12-22T19:28:32.978Z,8.17
2022-12-22T19:30:59.932Z,8.30
2022-12-22T19:33:33.716Z,7.53
2022-12-22T19:36:01.198Z,7.43
2022-12-22T19:38:28.670Z,8.47
2022-12-22T19:40:59.963Z,7.33
2022-12-22T19:43:29.375Z,7.20
2022-12-22T19:45:57.436Z,7.30
2022-12-22T19:48:26.909Z,7.67
2022-12-22T19:50:53.837Z,7.93
2022-12-22T19:53:21.371Z,7.67
2022-12-22T19:55:53.910Z,7.97
2022-12-22T19:58:37.784Z,7.77
2022-12-22T20:01:07.767Z,7.27
2022-12-22T20:03:34.404Z,7.43
2022-12-22T20:06:01.005Z,7.60
2022-12-22T20:08:27.426Z,8.20
2022-12-22T20:10:58.419Z,7.40
2022-12-22T20:13:31.094Z,7.40
2022-12-22T20:15:58.018Z,7.20
2022-12-22T20:18:30.393Z,8.07
2022-12-22T20:21:04.989Z,6.97
2022-12-22T20:23:35.135Z,8.23
2022-12-22T20:26:08.535Z,7.43
2022-12-22T20:28:39.616Z,7.90
2022-12-22T20:31:09.043Z,7.77
2022-12-22T20:33:35.640Z,8.67
2022-12-22T20:36:03.919Z,7.67
2022-12-22T20:38:40.991Z,7.73
2022-12-22T20:41:10.479Z,7.37
2022-12-22T20:43:38.137Z,7.90
2022-12-22T20:46:12.332Z,7.37
2022-12-22T20:48:43.803Z,7.50
2022-12-22T20:51:13.868Z,6.70
2022-12-22T20:53:40.689Z,7.13
2022-12-22T20:56:34.921Z,7.13
2022-12-22T20:59:12.547Z,6.80
2022-12-22T21:01:39.536Z,7.13
2022-12-22T21:04:06.242Z,7.07
2022-12-22T21:06:38.685Z,6.50
2022-12-22T21:09:05.877Z,6.90
2022-12-22T21:11:32.408Z,7.07
2022-12-22T21:13:59.132Z,6.40
2022-12-22T21:16:30.763Z,7.10
2022-12-22T21:18:57.700Z,7.10
2022-12-22T21:21:24.184Z,7.27
2022-12-22T21:23:50.764Z,6.80
2022-12-22T21:26:30.482Z,6.57
2022-12-22T21:28:57.544Z,6.67
2022-12-22T21:31:24.031Z,6.30
2022-12-22T21:33:50.698Z,6.33
2022-12-22T21:36:23.573Z,6.80
2022-12-22T21:38:53.762Z,7.23
2022-12-22T21:41:42.197Z,5.83
2022-12-22T21:44:09.303Z,6.43
2022-12-22T21:46:35.892Z,7.43
2022-12-22T21:49:02.352Z,7.20
2022-12-22T21:51:28.806Z,6.90
2022-12-22T21:53:55.190Z,7.10
2022-12-22T21:56:21.591Z,6.63
2022-12-22T21:58:48.325Z,6.80
2022-12-22T22:01:15.825Z,6.63
2022-12-22T22:03:42.502Z,6.53
2022-12-22T22:06:09.150Z,7.20
2022-12-22T22:08:35.619Z,7.50
2022-12-22T22:11:01.991Z,7.50
2022-12-22T22:13:28.421Z,6.87
2022-12-22T22:15:54.883Z,7.90
2022-12-22T22:18:21.369Z,7.27
2022-12-22T22:20:48.118Z,7.80
2022-12-22T22:23:15.165Z,7.97
2022-12-22T22:25:41.654Z,7.87
2022-12-22T22:28:10.523Z,8.40
2022-12-22T22:30:36.935Z,8.03
2022-12-22T22:33:03.593Z,7.20
2022-12-22T22:35:30.018Z,7.53
2022-12-22T22:37:56.465Z,6.40
2022-12-22T22:40:23.649Z,6.90
2022-12-22T22:42:50.139Z,7.30
2022-12-22T22:45:23.734Z,7.00
2022-12-22T22:47:53.965Z,7.00
2022-12-22T22:50:22.276Z,7.67
2022-12-22T22:52:49.165Z,7.00
2022-12-22T22:55:16.136Z,7.27
2022-12-22T22:57:42.708Z,7.33
2022-12-22T23:00:13.114Z,7.30
2022-12-22T23:02:39.955Z,7.37
2022-12-22T23:05:07.468Z,6.93
2022-12-22T23:07:34.968Z,6.73
2022-12-22T23:10:01.539Z,7.13
2022-12-22T23:12:28.051Z,6.30
2022-12-22T23:14:54.617Z,7.03
2022-12-22T23:17:21.050Z,6.83
2022-12-22T23:19:47.500Z,7.20
2022-12-22T23:22:14.137Z,7.23
2022-12-22T23:24:40.534Z,7.23
2022-12-22T23:27:07.076Z,6.97
2022-12-22T23:29:33.529Z,7.57
2022-12-22T23:32:00.129Z,8.13
2022-12-22T23:34:26.638Z,7.10
2022-12-22T23:36:53.047Z,8.37
2022-12-22T23:39:19.512Z,7.17
2022-12-22T23:41:45.961Z,8.73
2022-12-22T23:44:12.481Z,8.57
2022-12-22T23:46:40.237Z,7.90
2022-12-22T23:49:07.100Z,8.57
2022-12-22T23:51:33.471Z,8.07
2022-12-22T23:54:01.527Z,7.63
2022-12-22T23:56:32.058Z,8.90
2022-12-22T23:58:58.594Z,8.70
